Time;durP1;ratioP1;P1;durP2;ratioP2;P2;SDS_P1;SDS_P2;PMS_P1;PMS_P2;Temp;Humidity;BMP_temperature;BMP_pressure;BME280_temperature;BME280_humidity;BME280_pressure;Samples;Min_cycle;Max_cycle;Signal;HPM_P1;HPM_P2
2022/11/03 00:00:12;;;;;;;911.83;848.90;;;;;;;8.58;63.62;101711.53;693395;28;92132;-63
2022/11/03 00:00:33;;;;;;;927.22;863.78;;;;;;;8.58;63.65;101706.97;693876;28;68182;-63
2022/11/03 00:00:55;;;;;;;921.67;858.25;;;;;;;8.59;63.70;101697.91;695748;28;21203;-63
2022/11/03 00:01:16;;;;;;;917.58;854.55;;;;;;;8.59;63.62;101708.69;694949;28;47703;-63
2022/11/03 00:01:39;;;;;;;911.55;848.72;;;;;;;8.59;63.90;101705.13;693416;28;22394;-63
2022/11/03 00:02:00;;;;;;;917.00;854.00;;;;;;;8.60;63.96;101709.53;691399;28;69404;-64
2022/11/03 00:02:21;;;;;;;913.10;850.30;;;;;;;8.59;63.84;101708.69;693178;28;22351;-64
2022/11/03 00:02:42;;;;;;;900.40;837.97;;;;;;;8.60;63.88;101704.16;693252;28;21288;-64
2022/11/03 00:03:04;;;;;;;899.13;836.67;;;;;;;8.60;64.33;101706.84;693071;28;22399;-64
2022/11/03 00:03:26;;;;;;;903.88;841.22;;;;;;;8.59;64.31;101700.63;691592;28;69083;-64
2022/11/03 00:03:48;;;;;;;893.00;830.78;;;;;;;8.61;64.16;101703.16;692710;28;21545;-63
2022/11/03 00:04:11;;;;;;;894.65;832.42;;;;;;;8.61;64.12;101706.69;690965;28;67378;-63
2022/11/03 00:04:33;;;;;;;908.58;845.92;;;;;;;8.62;64.04;101694.06;691367;28;69451;-64
2022/11/03 00:04:55;;;;;;;909.30;846.50;;;;;;;8.64;63.92;101700.19;691965;28;45222;-63
2022/11/03 00:06:05;;;;;;;909.83;846.90;;;;;;;8.64;63.93;101703.72;686509;28;137968;-64
2022/11/03 00:06:26;;;;;;;907.13;844.33;;;;;;;8.65;63.90;101700.06;690988;28;122236;-64
2022/11/03 00:06:50;;;;;;;917.47;854.38;;;;;;;8.66;64.21;101698.19;695570;28;23515;-64
2022/11/03 00:07:11;;;;;;;902.65;839.92;;;;;;;8.67;64.02;101705.28;692786;28;92132;-64
2022/11/03 00:07:32;;;;;;;906.77;844.03;;;;;;;8.67;63.82;101699.91;695873;28;23983;-63
2022/11/03 00:07:53;;;;;;;898.55;836.08;;;;;;;8.66;64.09;101703.59;695053;28;45228;-63
2022/11/03 00:08:14;;;;;;;901.05;838.55;;;;;;;8.65;63.88;101708.13;693322;28;23414;-63
2022/11/03 00:08:43;;;;;;;900.17;837.65;;;;;;;8.64;63.83;101709.13;692703;28;21563;-64
2022/11/03 00:09:06;;;;;;;907.67;845.00;;;;;;;8.64;63.84;101706.41;689144;28;136226;-63
2022/11/03 00:09:27;;;;;;;901.63;839.15;;;;;;;8.63;63.85;101704.72;691695;28;67491;-64
2022/11/03 00:09:48;;;;;;;899.95;837.53;;;;;;;8.64;63.94;101705.59;695664;28;24718;-64
2022/11/03 00:10:09;;;;;;;897.45;835.08;;;;;;;8.64;63.96;101708.28;695814;28;22426;-64
2022/11/03 00:10:31;;;;;;;906.92;844.28;;;;;;;8.63;64.00;101698.47;695919;28;22245;-63
2022/11/03 00:10:53;;;;;;;908.28;845.58;;;;;;;8.62;64.01;101703.03;694239;28;69246;-64
2022/11/03 00:11:14;;;;;;;922.90;859.75;;;;;;;8.62;63.89;101697.63;695577;28;24410;-64
2022/11/03 00:11:39;;;;;;;905.22;842.50;;;;;;;8.62;64.15;101703.03;696132;28;14909;-63
2022/11/03 00:12:01;;;;;;;924.95;861.58;;;;;;;8.62;64.24;101702.16;695031;28;46245;-64
2022/11/03 00:12:23;;;;;;;924.10;860.67;;;;;;;8.61;64.08;101701.31;694070;28;67366;-63
2022/11/03 00:12:44;;;;;;;923.70;860.47;;;;;;;8.62;63.88;101702.16;694743;28;46217;-63
2022/11/03 00:13:06;;;;;;;920.58;857.42;;;;;;;8.59;63.91;101702.44;695928;28;23409;-64
2022/11/03 00:13:27;;;;;;;930.50;867.00;;;;;;;8.60;63.83;101702.28;695793;28;22426;-64
2022/11/03 00:13:49;;;;;;;925.10;861.72;;;;;;;8.60;64.07;101701.44;695331;28;21525;-63
2022/11/03 00:14:11;;;;;;;923.45;860.22;;;;;;;8.60;63.77;101705.00;695055;28;44593;-63
2022/11/03 00:14:32;;;;;;;923.75;860.40;;;;;;;8.60;64.09;101707.69;694855;28;44146;-64
2022/11/03 00:14:53;;;;;;;931.60;868.00;;;;;;;8.59;63.72;101700.63;695872;28;22402;-63
2022/11/03 00:15:15;;;;;;;924.42;861.10;;;;;;;8.58;64.10;101703.44;698111;28;22389;-64
2022/11/03 00:15:36;;;;;;;924.80;861.33;;;;;;;8.58;63.72;101700.75;696690;28;69417;-63
2022/11/03 00:15:58;;;;;;;930.05;866.45;;;;;;;8.56;63.79;101703.59;698483;28;23468;-62
2022/11/03 00:16:20;;;;;;;909.20;846.28;;;;;;;8.56;63.80;101698.19;692370;28;44658;-63
2022/11/03 00:16:42;;;;;;;914.20;851.15;;;;;;;8.56;64.20;101703.59;692919;28;21292;-63
2022/11/03 00:17:03;;;;;;;941.70;877.53;;;;;;;8.55;64.14;101701.03;690958;28;67482;-63
2022/11/03 00:17:25;;;;;;;924.25;860.75;;;;;;;8.55;64.25;101701.03;692826;28;22368;-63
2022/11/03 00:17:46;;;;;;;908.95;846.30;;;;;;;8.55;64.11;101698.34;693517;28;46239;-63
2022/11/03 00:18:07;;;;;;;929.85;866.47;;;;;;;8.54;64.02;101704.72;695702;28;22268;-63
2022/11/03 00:18:31;;;;;;;938.60;874.88;;;;;;;8.53;63.97;101703.88;695863;28;22336;-63
2022/11/03 00:18:54;;;;;;;930.10;866.60;;;;;;;8.53;63.88;101697.63;692534;28;111073;-61
2022/11/03 00:19:16;;;;;;;911.83;848.95;;;;;;;8.55;64.13;101701.03;694059;28;69412;-62
2022/11/03 00:19:37;;;;;;;921.10;857.97;;;;;;;8.53;63.93;101695.78;694803;28;46339;-64
2022/11/03 00:19:58;;;;;;;924.55;861.28;;;;;;;8.54;64.06;101699.31;695888;28;22412;-64
2022/11/03 00:20:24;;;;;;;922.05;858.92;;;;;;;8.54;63.93;101693.94;694946;28;46377;-64
2022/11/03 00:20:45;;;;;;;928.55;865.05;;;;;;;8.48;63.89;101690.81;692700;28;113834;-62
2022/11/03 00:21:07;;;;;;;925.15;861.80;;;;;;;8.54;64.09;101702.00;695518;28;21542;-62
2022/11/03 00:21:30;;;;;;;932.70;869.03;;;;;;;8.53;64.05;101701.19;694225;28;67322;-62
2022/11/03 00:21:52;;;;;;;922.67;859.42;;;;;;;8.53;63.79;101705.72;694854;28;45180;-62
2022/11/03 00:22:15;;;;;;;920.47;857.22;;;;;;;8.53;63.71;101706.56;695109;28;43855;-62
2022/11/03 00:22:36;;;;;;;926.65;863.28;;;;;;;8.53;63.97;101700.34;694884;28;45247;-62
2022/11/03 00:22:57;;;;;;;936.95;873.20;;;;;;;8.53;64.14;101703.88;695674;28;22338;-62
2022/11/03 00:23:18;;;;;;;926.63;863.30;;;;;;;8.52;64.08;101702.16;695106;28;44386;-62
2022/11/03 00:23:41;;;;;;;924.40;861.03;;;;;;;8.52;64.16;101704.84;695453;28;21630;-62
2022/11/03 00:24:04;;;;;;;925.63;862.22;;;;;;;8.52;63.81;101704.84;694209;28;67577;-62
2022/11/03 00:24:25;;;;;;;927.50;864.08;;;;;;;8.53;64.12;101705.72;693104;28;29473;-62
2022/11/03 00:24:47;;;;;;;906.58;843.90;;;;;;;8.52;64.09;101706.69;692038;28;46377;-62
2022/11/03 00:25:09;;;;;;;910.70;847.72;;;;;;;8.52;63.96;101701.31;692854;28;23472;-62
2022/11/03 00:25:31;;;;;;;922.42;859.13;;;;;;;8.46;64.13;101698.19;691487;28;70257;-62
2022/11/03 00:25:52;;;;;;;918.88;855.63;;;;;;;8.49;64.19;101702.44;692033;28;44355;-63
2022/11/03 00:26:15;;;;;;;919.30;855.97;;;;;;;8.51;64.34;101699.59;692823;28;22822;-62
2022/11/03 00:26:37;;;;;;;925.22;861.92;;;;;;;8.51;64.23;101705.84;691104;28;69424;-63
2022/11/03 00:26:59;;;;;;;912.67;849.50;;;;;;;8.52;64.00;101712.09;691548;28;44399;-63
2022/11/03 00:27:20;;;;;;;916.47;853.15;;;;;;;8.50;64.30;101704.16;694615;28;46269;-62
2022/11/03 00:27:41;;;;;;;901.25;838.63;;;;;;;8.49;64.23;101697.03;695595;28;22387;-63
2022/11/03 00:28:03;;;;;;;903.45;840.78;;;;;;;8.48;63.96;101704.28;695480;28;22402;-62
2022/11/03 00:28:25;;;;;;;908.42;845.63;;;;;;;8.47;64.01;101699.88;694822;28;46309;-62
2022/11/03 00:28:48;;;;;;;900.65;838.10;;;;;;;8.47;63.95;101710.66;694423;28;46335;-63
2022/11/03 00:29:11;;;;;;;906.33;843.58;;;;;;;8.47;64.11;101699.03;693546;28;69492;-62
2022/11/03 00:29:34;;;;;;;900.42;837.90;;;;;;;8.47;64.19;101699.88;693588;28;69423;-63
2022/11/03 00:29:55;;;;;;;902.40;839.70;;;;;;;8.48;64.36;101700.75;688666;28;69786;-63
2022/11/03 00:30:16;;;;;;;914.20;851.20;;;;;;;8.44;64.48;101697.47;690105;28;23194;-63
2022/11/03 00:30:38;;;;;;;901.45;838.83;;;;;;;8.47;64.28;101701.72;686245;28;46309;-62
2022/11/03 00:31:00;;;;;;;907.28;844.60;;;;;;;8.45;64.59;101701.88;688242;28;24764;-63
2022/11/03 00:31:24;;;;;;;904.20;841.60;;;;;;;8.45;64.41;101698.34;690101;28;23467;-64
2022/11/03 00:31:45;;;;;;;905.05;842.38;;;;;;;8.44;64.48;101700.16;689498;28;93043;-63
2022/11/03 00:32:06;;;;;;;908.13;845.33;;;;;;;8.45;64.54;101707.25;695574;28;22400;-64
2022/11/03 00:32:27;;;;;;;916.50;853.47;;;;;;;8.44;64.42;101700.16;695690;28;23460;-63
2022/11/03 00:32:48;;;;;;;906.35;843.60;;;;;;;8.42;64.27;101699.41;694480;28;44370;-63
2022/11/03 00:33:10;;;;;;;903.10;840.45;;;;;;;8.41;64.13;101695.03;695347;28;21313;-64
2022/11/03 00:33:32;;;;;;;894.83;832.40;;;;;;;8.39;64.13;101698.84;694597;28;44386;-64
2022/11/03 00:33:56;;;;;;;893.83;831.38;;;;;;;8.37;64.15;101700.81;693782;28;44409;-64
2022/11/03 00:34:19;;;;;;;887.10;824.92;;;;;;;8.36;64.05;101699.13;690806;28;91981;-64
2022/11/03 00:34:40;;;;;;;903.88;841.13;;;;;;;8.32;64.11;101698.53;694682;28;44318;-63
2022/11/03 00:35:01;;;;;;;921.30;858.05;;;;;;;8.30;63.93;101692.44;695510;28;21539;-64
2022/11/03 00:35:22;;;;;;;913.75;850.75;;;;;;;8.27;63.84;101698.97;694738;28;46357;-63
2022/11/03 00:35:43;;;;;;;925.88;862.38;;;;;;;8.24;64.10;101693.84;695408;28;21539;-64
2022/11/03 00:36:06;;;;;;;938.35;874.47;;;;;;;8.22;64.05;101695.84;695815;28;22397;-64
2022/11/03 00:36:30;;;;;;;897.90;835.50;;;;;;;8.19;63.90;101692.56;694215;28;69449;-64
2022/11/03 00:36:51;;;;;;;916.70;853.80;;;;;;;8.17;64.06;101697.25;693270;28;92987;-64
2022/11/03 00:37:12;;;;;;;909.92;847.10;;;;;;;8.15;64.07;101694.72;695099;28;22388;-63
2022/11/03 00:37:34;;;;;;;909.08;846.45;;;;;;;8.14;64.08;101702.91;695730;28;21542;-64
2022/11/03 00:37:55;;;;;;;912.83;850.08;;;;;;;8.14;64.45;101700.22;694982;28;45276;-63
2022/11/03 00:38:17;;;;;;;929.08;865.78;;;;;;;8.11;64.37;101698.66;692926;28;23455;-64
2022/11/03 00:38:38;;;;;;;917.83;854.78;;;;;;;8.11;64.78;101698.66;691585;28;46336;-63
2022/11/03 00:39:00;;;;;;;923.47;860.20;;;;;;;8.08;64.46;101694.38;695402;28;22384;-63
2022/11/03 00:39:21;;;;;;;910.00;847.15;;;;;;;8.08;64.83;101697.06;694786;28;46871;-63
2022/11/03 00:39:42;;;;;;;896.15;833.83;;;;;;;8.09;64.93;101697.94;694861;28;46266;-62
2022/11/03 00:40:04;;;;;;;896.00;833.78;;;;;;;8.08;65.01;101694.38;695710;28;22398;-64
2022/11/03 00:40:26;;;;;;;897.78;835.42;;;;;;;8.08;65.13;101702.44;694857;28;46248;-63
2022/11/03 00:40:53;;;;;;;917.63;854.50;;;;;;;8.08;65.00;101698.91;695646;28;22398;-64
2022/11/03 00:41:15;;;;;;;900.28;837.63;;;;;;;8.07;64.97;101695.38;691706;28;136306;-64
2022/11/03 00:41:37;;;;;;;916.20;853.22;;;;;;;8.08;65.14;101696.22;694807;28;46314;-63
2022/11/03 00:41:58;;;;;;;906.97;844.15;;;;;;;8.08;65.13;101701.63;694948;28;46328;-64
2022/11/03 00:42:20;;;;;;;904.55;841.90;;;;;;;8.06;64.91;101695.53;695782;28;22400;-63
2022/11/03 00:42:41;;;;;;;910.80;847.90;;;;;;;8.06;65.18;101693.69;694058;28;67293;-63
2022/11/03 00:43:02;;;;;;;897.85;835.13;;;;;;;8.05;64.88;101697.34;692727;28;23234;-63
2022/11/03 00:43:27;;;;;;;887.58;825.65;;;;;;;8.05;64.78;101693.81;694339;28;14252;-64
2022/11/03 00:43:50;;;;;;;912.83;850.03;;;;;;;8.05;64.83;101694.66;694314;28;46496;-62
2022/11/03 00:44:12;;;;;;;917.15;854.13;;;;;;;8.02;64.92;101694.09;691439;28;67395;-62
2022/11/03 00:44:33;;;;;;;918.85;855.78;;;;;;;8.03;64.94;101695.81;692211;28;45285;-63
2022/11/03 00:44:54;;;;;;;915.10;852.10;;;;;;;8.02;64.87;101699.47;693846;28;21538;-64
2022/11/03 00:45:15;;;;;;;921.47;858.25;;;;;;;8.00;64.89;101699.59;693981;28;22393;-64
2022/11/03 00:45:37;;;;;;;913.88;850.88;;;;;;;8.01;64.96;101701.31;694592;28;45246;-62
2022/11/03 00:45:59;;;;;;;909.78;846.70;;;;;;;7.99;64.68;101695.19;694648;28;44374;-63
2022/11/03 00:46:21;;;;;;;901.60;838.78;;;;;;;7.98;64.76;101693.53;695785;28;23540;-63
2022/11/03 00:46:42;;;;;;;915.30;852.22;;;;;;;8.00;64.71;101694.22;694859;28;46367;-63
2022/11/03 00:47:03;;;;;;;919.08;855.75;;;;;;;7.99;64.99;101689.81;695440;28;21453;-63
2022/11/03 00:47:26;;;;;;;907.30;844.45;;;;;;;7.98;64.70;101689.94;694810;28;46410;-64
2022/11/03 00:48:29;;;;;;;917.63;854.42;;;;;;;7.94;64.89;101682.16;691479;28;136040;-64
2022/11/03 00:48:51;;;;;;;907.55;844.80;;;;;;;7.97;64.63;101686.44;690674;28;157582;-63
2022/11/03 00:49:13;;;;;;;917.15;854.13;;;;;;;7.97;64.77;101696.34;695751;28;21524;-64
2022/11/03 00:49:35;;;;;;;922.05;858.85;;;;;;;7.97;64.79;101690.97;693748;28;69471;-64
2022/11/03 00:49:56;;;;;;;907.17;844.40;;;;;;;7.93;64.58;101683.16;694505;28;47290;-64
2022/11/03 00:50:17;;;;;;;895.97;833.65;;;;;;;7.92;64.40;101694.06;695741;28;21539;-63
2022/11/03 00:50:38;;;;;;;891.35;829.08;;;;;;;7.92;64.68;101692.22;695711;28;21503;-64
2022/11/03 00:51:02;;;;;;;901.38;838.75;;;;;;;7.90;64.44;101686.13;695644;28;23472;-64
2022/11/03 00:51:25;;;;;;;885.83;823.78;;;;;;;7.88;64.32;101689.94;693485;28;90663;-63
2022/11/03 00:51:46;;;;;;;916.25;853.15;;;;;;;7.83;64.32;101679.56;693897;28;69770;-63
2022/11/03 00:52:07;;;;;;;909.88;846.97;;;;;;;7.85;64.38;101690.19;695541;28;23683;-63
2022/11/03 00:52:28;;;;;;;905.25;842.63;;;;;;;7.84;64.35;101685.84;695930;28;23312;-64
2022/11/03 00:52:50;;;;;;;906.85;844.08;;;;;;;7.83;64.45;101692.19;694893;28;46274;-63
2022/11/03 00:53:12;;;;;;;900.47;837.88;;;;;;;7.82;64.42;101693.16;695828;28;21229;-64
2022/11/03 00:53:35;;;;;;;898.75;836.22;;;;;;;7.79;64.71;101691.63;694591;28;46415;-64
2022/11/03 00:53:58;;;;;;;918.15;854.95;;;;;;;7.79;64.75;101685.38;694011;28;69436;-64
2022/11/03 00:54:19;;;;;;;910.20;847.25;;;;;;;7.78;64.78;101689.91;694054;28;69494;-64
2022/11/03 00:54:41;;;;;;;894.88;832.40;;;;;;;7.78;64.73;101678.31;694982;28;46170;-64
2022/11/03 00:55:02;;;;;;;906.10;843.30;;;;;;;7.78;64.91;101681.00;695598;28;23446;-63
2022/11/03 00:55:29;;;;;;;907.30;844.50;;;;;;;7.78;64.59;101681.00;694455;28;61724;-64
2022/11/03 00:55:50;;;;;;;910.13;847.22;;;;;;;7.79;65.33;101677.28;694833;28;46426;-64
2022/11/03 00:56:13;;;;;;;910.90;848.00;;;;;;;7.81;65.39;101678.88;695443;28;23472;-63
2022/11/03 00:56:36;;;;;;;901.08;838.50;;;;;;;7.83;65.69;101673.34;693814;28;69450;-64
2022/11/03 00:56:57;;;;;;;910.13;847.00;;;;;;;7.86;65.95;101678.47;693530;28;69424;-64
2022/11/03 00:57:18;;;;;;;916.05;852.85;;;;;;;7.90;66.16;101674.53;694699;28;45361;-63
2022/11/03 00:57:39;;;;;;;913.47;850.40;;;;;;;7.94;66.75;101670.56;695696;28;22375;-64
2022/11/03 00:58:00;;;;;;;920.00;856.80;;;;;;;7.96;66.69;101667.72;695805;28;18301;-64
2022/11/03 00:58:22;;;;;;;910.03;847.13;;;;;;;8.01;66.58;101670.84;695516;28;22482;-62
2022/11/03 00:58:44;;;;;;;909.70;846.80;;;;;;;8.03;66.88;101661.66;694558;28;45120;-64
2022/11/03 00:59:07;;;;;;;909.67;846.72;;;;;;;8.08;66.73;101666.63;694860;28;46311;-63
2022/11/03 00:59:29;;;;;;;915.90;852.83;;;;;;;8.11;66.97;101667.19;694149;28;69338;-64
2022/11/03 00:59:50;;;;;;;908.28;845.38;;;;;;;8.15;67.18;101662.41;695068;28;45234;-64
2022/11/03 01:00:12;;;;;;;913.88;850.88;;;;;;;8.16;66.74;101663.25;695574;28;21508;-64
2022/11/03 01:00:33;;;;;;;910.20;847.20;;;;;;;8.19;66.75;101663.81;693921;28;45298;-64
2022/11/03 01:00:58;;;;;;;916.22;852.95;;;;;;;8.23;66.72;101664.41;695467;28;21529;-63
2022/11/03 01:01:23;;;;;;;915.90;852.70;;;;;;;8.27;66.77;101668.50;691608;28;138816;-64
2022/11/03 01:01:44;;;;;;;923.10;859.65;;;;;;;8.28;66.73;101665.69;690487;28;92266;-64
2022/11/03 01:02:05;;;;;;;923.80;860.35;;;;;;;8.28;66.53;101660.28;695654;28;11297;-64
2022/11/03 01:02:27;;;;;;;899.08;836.38;;;;;;;8.33;66.77;101665.25;694071;28;45209;-64
2022/11/03 01:02:49;;;;;;;897.60;834.60;;;;;;;8.35;66.22;101665.97;692266;28;23466;-62
2022/11/03 01:03:10;;;;;;;894.83;832.35;;;;;;;8.36;66.59;101673.06;692668;28;45247;-63
2022/11/03 01:03:33;;;;;;;907.92;845.10;;;;;;;8.35;66.38;101662.44;691269;28;46323;-64
2022/11/03 01:06:51;;;;;;;909.45;846.72;;;;;;;8.54;66.21;101664.31;688768;28;135979;-62
2022/11/03 01:07:12;;;;;;;912.15;849.15;;;;;;;8.54;66.09;101665.19;688680;28;137219;-63
2022/11/03 01:07:33;;;;;;;897.60;835.22;;;;;;;8.55;65.85;101666.88;692959;28;22449;-64
2022/11/03 01:07:54;;;;;;;902.90;840.38;;;;;;;8.56;66.09;101657.81;694934;28;22400;-63
2022/11/03 01:08:16;;;;;;;904.22;841.72;;;;;;;8.57;65.72;101662.19;695589;28;22404;-63
2022/11/03 01:08:38;;;;;;;908.33;845.58;;;;;;;8.58;65.48;101652.28;693446;28;67487;-62
2022/11/03 01:08:59;;;;;;;922.28;859.10;;;;;;;8.57;65.52;101656.81;695763;28;22366;-63
2022/11/03 01:09:22;;;;;;;900.13;837.72;;;;;;;8.56;65.27;101660.50;695748;28;21536;-63
2022/11/03 01:09:44;;;;;;;900.90;838.67;;;;;;;8.57;65.31;101661.34;694136;28;70206;-64
2022/11/03 01:10:06;;;;;;;895.15;833.08;;;;;;;8.56;65.17;101667.75;694881;28;46404;-64
2022/11/03 01:10:27;;;;;;;879.33;817.78;;;;;;;8.55;65.19;101660.66;696217;28;1404;-62
2022/11/03 01:11:42;;;;;;;895.95;833.83;;;;;;;8.51;65.02;101667.28;688689;28;137529;-63
2022/11/03 01:12:05;;;;;;;911.60;848.75;;;;;;;8.49;65.16;101659.34;688714;28;136009;-63
2022/11/03 01:12:28;;;;;;;902.55;840.03;;;;;;;8.52;65.20;101648.31;693579;28;906;-63
2022/11/03 01:12:49;;;;;;;914.15;851.15;;;;;;;8.52;65.20;101653.69;691587;28;46580;-63
2022/11/03 01:13:12;;;;;;;905.03;842.42;;;;;;;8.51;65.13;101660.09;692789;28;21618;-63
2022/11/03 01:13:33;;;;;;;903.95;841.55;;;;;;;8.50;64.96;101652.16;690891;28;69423;-63
2022/11/03 01:13:54;;;;;;;903.88;841.42;;;;;;;8.50;64.82;101660.22;692736;28;23435;-63
2022/11/03 01:14:17;;;;;;;871.28;810.15;;;;;;;8.49;64.44;101667.44;692890;28;21518;-63
2022/11/03 01:14:40;;;;;;;884.92;823.10;;;;;;;8.47;64.63;101653.28;693615;28;67405;-63
2022/11/03 01:15:01;;;;;;;896.47;834.10;;;;;;;8.46;64.75;101655.13;694509;28;69361;-63
2022/11/03 01:15:28;;;;;;;880.72;819.03;;;;;;;8.45;64.85;101666.88;697199;28;61716;-63
2022/11/03 01:15:49;;;;;;;897.38;835.00;;;;;;;8.46;64.93;101655.13;697485;28;44164;-63
2022/11/03 01:16:10;;;;;;;896.78;834.47;;;;;;;8.44;64.91;101664.31;694360;28;21186;-61
2022/11/03 01:16:31;;;;;;;889.88;827.80;;;;;;;8.46;64.71;101668.59;693041;28;21510;-63
2022/11/03 01:16:54;;;;;;;892.90;830.63;;;;;;;8.46;64.79;101655.13;691320;28;46403;-63
2022/11/03 01:17:17;;;;;;;891.42;828.97;;;;;;;8.47;65.30;101666.72;691746;28;44394;-63
2022/11/03 01:17:39;;;;;;;909.65;846.75;;;;;;;8.47;65.06;101667.56;690921;28;69448;-63
2022/11/03 01:18:00;;;;;;;921.30;858.13;;;;;;;8.47;65.25;101661.34;690997;28;69326;-63
2022/11/03 01:18:27;;;;;;;908.03;845.30;;;;;;;8.48;65.33;101666.59;692293;28;36673;-63
2022/11/03 01:18:49;;;;;;;896.40;834.03;;;;;;;8.51;65.60;101664.59;690777;28;69535;-62
2022/11/03 01:19:10;;;;;;;888.95;826.83;;;;;;;8.53;65.37;101655.41;692797;28;23451;-63
2022/11/03 01:19:31;;;;;;;897.28;834.97;;;;;;;8.55;65.68;101661.47;692960;28;23439;-63
2022/11/03 01:19:55;;;;;;;900.15;837.70;;;;;;;8.58;65.38;101657.66;692069;28;45255;-63
2022/11/03 01:20:16;;;;;;;902.92;840.40;;;;;;;8.58;65.88;101663.06;691295;28;69893;-63
2022/11/03 01:20:38;;;;;;;897.67;835.25;;;;;;;8.61;65.38;101662.78;692855;28;21465;-63
2022/11/03 01:20:59;;;;;;;890.35;828.20;;;;;;;8.63;65.56;101658.94;692822;28;23525;-63
2022/11/03 01:21:20;;;;;;;895.65;833.33;;;;;;;8.63;65.40;101656.22;692077;28;44366;-64
2022/11/03 01:21:43;;;;;;;906.63;843.90;;;;;;;8.66;65.19;101658.63;692926;28;22188;-63
2022/11/03 01:22:04;;;;;;;911.40;848.53;;;;;;;8.65;65.35;101654.28;691335;28;66636;-63
2022/11/03 01:22:25;;;;;;;890.25;828.10;;;;;;;8.67;65.17;101656.81;692969;28;22364;-63
2022/11/03 01:22:46;;;;;;;912.28;849.40;;;;;;;8.69;65.33;101662.06;692840;28;21525;-62
2022/11/03 01:23:07;;;;;;;921.95;858.75;;;;;;;8.69;65.18;101656.69;692853;28;23424;-63
2022/11/03 01:23:30;;;;;;;919.17;856.13;;;;;;;8.68;65.43;101655.81;692164;28;45243;-63
2022/11/03 01:23:51;;;;;;;911.58;848.67;;;;;;;8.67;65.31;101656.81;691234;28;66384;-63
2022/11/03 01:24:12;;;;;;;901.95;839.42;;;;;;;8.67;65.44;101656.81;692876;28;22371;-63
2022/11/03 01:24:35;;;;;;;901.15;838.70;;;;;;;8.68;65.35;101663.03;692898;28;23449;-63
2022/11/03 01:24:56;;;;;;;908.45;845.63;;;;;;;8.67;65.44;101656.81;691306;28;69378;-62
2022/11/03 01:25:17;;;;;;;907.33;844.63;;;;;;;8.67;65.27;101656.81;692791;28;22384;-63
2022/11/03 01:25:38;;;;;;;917.38;854.40;;;;;;;8.66;65.45;101652.41;692880;28;21594;-63
2022/11/03 01:26:03;;;;;;;912.33;849.40;;;;;;;8.65;65.38;101653.41;692586;28;21521;-62
2022/11/03 01:26:25;;;;;;;914.92;852.05;;;;;;;8.64;65.46;101654.41;689506;28;114471;-63
2022/11/03 01:26:46;;;;;;;921.33;858.08;;;;;;;8.63;65.24;101648.16;691877;28;46339;-62
2022/11/03 01:27:08;;;;;;;924.00;860.58;;;;;;;8.61;65.16;101652.00;693733;28;22378;-63
2022/11/03 01:27:29;;;;;;;924.42;861.10;;;;;;;8.58;65.29;101645.03;694080;28;46340;-63
2022/11/03 01:27:50;;;;;;;927.22;863.88;;;;;;;8.61;65.00;101655.53;695367;28;22407;-62
2022/11/03 01:28:12;;;;;;;934.25;870.63;;;;;;;8.59;65.22;101649.44;695122;28;23441;-63
2022/11/03 01:28:34;;;;;;;908.55;845.72;;;;;;;8.59;65.36;101646.75;693601;28;46319;-63
2022/11/03 01:28:57;;;;;;;910.45;847.65;;;;;;;8.61;65.30;101657.38;694747;28;46296;-63
2022/11/03 01:29:19;;;;;;;911.55;848.75;;;;;;;8.61;65.13;101654.69;693276;28;69474;-63
2022/11/03 01:29:42;;;;;;;908.45;845.75;;;;;;;8.61;64.99;101649.31;696306;28;1042;-63
2022/11/03 01:30:04;;;;;;;908.13;845.40;;;;;;;8.60;65.19;101653.81;694764;28;46381;-63
2022/11/03 01:30:25;;;;;;;908.45;845.65;;;;;;;8.60;65.13;101653.81;695917;28;1169;-63
2022/11/03 01:30:46;;;;;;;912.08;849.20;;;;;;;8.60;65.62;101651.13;695384;28;23476;-64
2022/11/03 01:31:09;;;;;;;905.33;842.63;;;;;;;8.60;65.35;101648.44;695411;28;22433;-63
2022/11/03 01:31:31;;;;;;;902.22;839.63;;;;;;;8.63;65.49;101650.00;691288;28;67316;-63
2022/11/03 01:31:52;;;;;;;912.75;849.83;;;;;;;8.63;65.37;101650.84;692587;28;44028;-63
2022/11/03 01:32:13;;;;;;;889.65;827.53;;;;;;;8.65;65.32;101650.72;695401;28;23438;-63
2022/11/03 01:32:35;;;;;;;902.90;840.47;;;;;;;8.65;65.68;101651.56;694873;28;44375;-63
2022/11/03 01:32:56;;;;;;;904.83;842.30;;;;;;;8.66;65.36;101647.03;695652;28;22376;-62
2022/11/03 01:33:20;;;;;;;892.13;829.97;;;;;;;8.68;65.00;101646.88;695607;28;22396;-63
2022/11/03 01:33:41;;;;;;;890.28;827.97;;;;;;;8.68;64.96;101653.13;692799;28;91947;-63
2022/11/03 01:34:02;;;;;;;899.35;836.85;;;;;;;8.68;64.92;101650.41;695517;28;22162;-63
2022/11/03 01:34:24;;;;;;;899.92;837.42;;;;;;;8.65;64.42;101645.31;695275;28;22390;-63
2022/11/03 01:34:46;;;;;;;899.13;836.65;;;;;;;8.63;64.47;101648.16;695649;28;22380;-63
2022/11/03 01:35:08;;;;;;;911.90;849.10;;;;;;;8.66;64.65;101647.88;694731;28;44448;-63
2022/11/03 01:35:29;;;;;;;899.90;837.42;;;;;;;8.66;65.16;101650.56;693150;28;69452;-63
2022/11/03 01:35:51;;;;;;;906.70;843.92;;;;;;;8.64;65.05;101646.34;692779;28;22407;-63
2022/11/03 01:36:14;;;;;;;915.58;852.58;;;;;;;8.63;64.82;101647.31;694454;28;45250;-63
2022/11/03 01:36:36;;;;;;;904.83;842.17;;;;;;;8.68;64.66;101650.41;694747;28;45334;-63
2022/11/03 01:36:57;;;;;;;895.58;833.17;;;;;;;8.68;64.63;101649.59;694430;28;44307;-62
2022/11/03 01:37:18;;;;;;;898.47;835.75;;;;;;;8.68;64.46;101647.72;694599;28;45284;-62
2022/11/03 01:37:39;;;;;;;910.78;847.78;;;;;;;8.67;64.73;101651.44;694219;28;23491;-62
2022/11/03 01:38:00;;;;;;;909.80;846.90;;;;;;;8.66;64.35;101653.25;693204;28;22417;-62
2022/11/03 01:38:22;;;;;;;906.53;843.88;;;;;;;8.66;64.46;101650.56;695628;28;22833;-62
2022/11/03 01:38:44;;;;;;;904.40;841.83;;;;;;;8.65;64.73;101646.19;694290;28;44369;-62
2022/11/03 01:39:05;;;;;;;916.67;853.70;;;;;;;8.65;64.79;101648.88;694765;28;45158;-62
2022/11/03 01:39:26;;;;;;;907.00;844.35;;;;;;;8.65;64.85;101654.28;695550;28;23493;-62
2022/11/03 01:39:48;;;;;;;914.42;851.50;;;;;;;8.68;64.82;101647.72;695349;28;22481;-62
2022/11/03 01:40:10;;;;;;;915.83;852.88;;;;;;;8.68;65.00;101647.72;694927;28;44541;-63
2022/11/03 01:40:32;;;;;;;895.80;833.50;;;;;;;8.69;65.07;101644.06;693947;28;69536;-63
2022/11/03 01:40:53;;;;;;;905.28;842.47;;;;;;;8.68;64.86;101654.97;695604;28;22399;-63
2022/11/03 01:41:16;;;;;;;899.30;836.85;;;;;;;8.66;64.85;101645.19;695606;28;23497;-63
2022/11/03 01:41:39;;;;;;;904.30;841.60;;;;;;;8.65;64.97;101648.88;693035;28;90952;-63
2022/11/03 01:42:00;;;;;;;896.13;833.72;;;;;;;8.65;64.89;101651.56;692713;28;46418;-63
2022/11/03 01:42:21;;;;;;;899.47;837.05;;;;;;;8.65;64.85;101653.41;692009;28;46425;-63
2022/11/03 01:42:42;;;;;;;907.72;844.95;;;;;;;8.64;65.00;101646.34;692800;28;23098;-63
2022/11/03 01:43:16;;;;;;;898.72;836.25;;;;;;;8.63;64.84;101650.84;692968;28;21550;-62
2022/11/03 01:43:39;;;;;;;913.83;850.85;;;;;;;8.60;64.86;101644.91;688453;28;137700;-62
2022/11/03 01:44:34;;;;;;;904.50;841.85;;;;;;;8.57;64.78;101651.41;691220;28;69504;-62
2022/11/03 01:44:56;;;;;;;896.38;833.97;;;;;;;8.59;65.14;101653.97;683145;28;137843;-61
2022/11/03 01:45:18;;;;;;;891.42;829.33;;;;;;;8.59;64.88;101648.56;688339;28;21304;-62
2022/11/03 01:45:39;;;;;;;904.95;842.38;;;;;;;8.58;64.95;101645.03;685693;28;46437;-62